»·PEaware :: N717TS KCRQ-KWHP

N717TS :: KCRQ-KWHP

FLIGHT INFORMATION

Flight Status: Arrived
Operator: Privately registered:
United States
More flights under this callsign
Pilot: Ty S. (2873)
Aircraft: PIPER PA-30 TWIN COMANCHE
(PA30)
More flights by this aircraft type
Origin: KCRQ McClellan-Palomar
United States
Destination: KWHP Whiteman
United States
More flights between these airports :: More routes between these airports
Route: OCN V23 POPPR SMO125R SMO SMO317R CANOG
File this flight plan on PilotEdge
Remarks:
Altitude:
(Current/Filed)
6,000ft
Speed:
(Current/Filed)
160kts
Departed: 23-Sep-19 05:46 PM
Arrived: 23-Sep-19 06:29 PM
Distance/Time
Traveled:
88nm/0:43
Distance/Time
To Go:
Arrived

Flight Plot

Page will automatically refresh every two minutes.


Map Options




Map Legend


Flown Route
Filed Route
Departure Airport
Arrival Airport
Navaid (VOR, NDB)
Fix

Horizontal Profiles

Position Reports

Time Latitude Longitude Heading Altitude Ground
Speed
23-Sep-19 17:34 33.127686 -117.276132 350 334ft 0kts
23-Sep-19 17:35 33.127686 -117.276132 350 334ft 0kts
23-Sep-19 17:36 33.127686 -117.276132 350 334ft 0kts
23-Sep-19 17:37 33.127686 -117.276132 350 334ft 0kts
23-Sep-19 17:38 33.127686 -117.276132 350 334ft 0kts
23-Sep-19 17:39 33.127686 -117.276132 350 334ft 0kts
23-Sep-19 17:40 33.127686 -117.276132 350 334ft 0kts
23-Sep-19 17:41 33.127686 -117.276132 350 334ft 0kts
23-Sep-19 17:42 33.128196 -117.275309 78 334ft 10kts
23-Sep-19 17:43 33.128709 -117.272414 57 334ft 0kts
23-Sep-19 17:44 33.129320 -117.273470 259 334ft 35kts
23-Sep-19 17:45 33.125535 -117.301615 266 1018ft 105kts
23-Sep-19 17:46 33.121418 -117.339962 262 1834ft 120kts
23-Sep-19 17:47 33.131539 -117.372102 337 2695ft 123kts
23-Sep-19 17:48 33.163996 -117.384994 338 3527ft 123kts
23-Sep-19 17:49 33.196383 -117.398266 337 4324ft 123kts
23-Sep-19 17:50 33.228503 -117.411674 337 5084ft 122kts
23-Sep-19 17:51 33.256353 -117.432594 309 5806ft 118kts
23-Sep-19 17:53 33.282616 -117.462179 314 5993ft 144kts
23-Sep-19 17:54 33.313102 -117.495896 314 5990ft 151kts
23-Sep-19 17:55 33.338712 -117.535335 302 5989ft 150kts
23-Sep-19 17:56 33.363506 -117.578138 302 5990ft 159kts
23-Sep-19 17:57 33.388944 -117.622147 302 5989ft 161kts
23-Sep-19 17:58 33.414556 -117.666421 302 5991ft 161kts
23-Sep-19 17:59 33.440099 -117.710541 302 5991ft 161kts
23-Sep-19 18:00 33.465680 -117.754652 302 5991ft 161kts
23-Sep-19 18:01 33.491278 -117.798719 302 5991ft 160kts
23-Sep-19 18:02 33.516845 -117.842683 302 5991ft 160kts
23-Sep-19 18:03 33.542442 -117.886617 302 5991ft 160kts
23-Sep-19 18:04 33.568051 -117.930456 302 5991ft 160kts
23-Sep-19 18:05 33.593840 -117.974492 302 5990ft 161kts
23-Sep-19 18:06 33.619682 -118.018517 302 5990ft 161kts
23-Sep-19 18:07 33.645597 -118.062575 302 5990ft 161kts
23-Sep-19 18:08 33.671604 -118.106757 302 5990ft 161kts
23-Sep-19 18:09 33.702142 -118.146541 314 5990ft 162kts
23-Sep-19 18:10 33.735847 -118.182513 316 5990ft 161kts
23-Sep-19 18:11 33.770064 -118.217238 317 5989ft 160kts
23-Sep-19 18:12 33.808384 -118.255473 318 5015ft 182kts
23-Sep-19 18:13 33.847460 -118.294215 319 4256ft 181kts
23-Sep-19 18:14 33.885599 -118.332005 319 4003ft 170kts
23-Sep-19 18:15 33.921825 -118.367912 319 3998ft 167kts
23-Sep-19 18:15 33.951967 -118.397829 319 3998ft 168kts
23-Sep-19 18:17 33.993124 -118.441026 317 3997ft 168kts
23-Sep-19 18:18 34.032360 -118.471439 320 3995ft 169kts
23-Sep-19 18:18 34.060079 -118.504776 312 3998ft 169kts
23-Sep-19 18:19 34.093123 -118.545372 312 3998ft 170kts
23-Sep-19 18:20 34.126588 -118.586028 312 3998ft 171kts
23-Sep-19 18:21 34.167499 -118.608499 11 3998ft 178kts
23-Sep-19 18:22 34.215894 -118.593867 13 3998ft 180kts
23-Sep-19 18:23 34.261394 -118.571744 62 3562ft 185kts
23-Sep-19 18:24 34.267265 -118.515595 91 2720ft 163kts
23-Sep-19 18:25 34.269440 -118.462938 80 2100ft 125kts
23-Sep-19 18:26 34.273233 -118.431552 102 1446ft 81kts
23-Sep-19 18:27 34.259060 -118.413256 138 1005ft 51kts
23-Sep-19 18:28 34.258497 -118.411992 320 1005ft 7kts
23-Sep-19 18:29 34.260480 -118.412314 321 1005ft 9kts
23-Sep-19 18:30 34.260955 -118.412387 323 1005ft 0kts

Navigation Log

Ident Type
Flight plan parsing failed, navigation log unavailable